Flight Track Log - Related Links

Times and Time Zones

All times are in EDT time to prevent confusion due to time zone crossing. See the DAL1903 flight status page for this flight to view local times or setup timezone preferences in your user account.

Time Position Orientation Groundspeed Altitude Reporting Facility
EDT Latitude Longitude Course Direction KTS MPH feet Rate Location/Type
Sun 11:18:24 AM 40.7500 -73.8167 270° West 181 208 1,800  Level New York TRACON
Sun 11:19:23 AM 40.7833 -73.7500 57° Northeast 250 288 4,700 3,176 Climbing New York TRACON
Sun 11:20:00 AM 40.6330 -74.2788 244° Southwest  Level FlightAware Approximate
Sun 11:20:23 AM 40.8500 -73.7833 339° North 253 291 8,100  Level New York TRACON
Sun 11:21:00 AM 40.5834 -74.4167 246° West  Level FlightAware Approximate
Sun 11:21:23 AM 40.9000 -73.8500 315° West 286 329 11,400  Level New York TRACON
Sun 11:22:00 AM 40.5368 -74.5563 246° West  Level FlightAware Approximate
Sun 11:22:23 AM 40.9000 -73.9667 270° West 333 383 13,000  Level New York TRACON
Sun 11:23:00 AM 40.5000 -74.6970 270° West  Level FlightAware Approximate
Sun 11:23:29 AM 40.8500 -74.1000 244° Southwest 394 453 14,900  Level New York TRACON
Sun 11:24:23 AM 40.7833 -74.2167 233° Southwest 406 467 15,100 474 Climbing New York TRACON
Sun 11:25:23 AM 40.7333 -74.3333 241° Southwest 416 479 15,800 1,348 Climbing New York TRACON
Sun 11:27:30 AM 40.5994 -74.6003 237° Southwest 421 484 19,300 1,914 Climbing New York Center
Sun 11:28:28 AM 40.5367 -74.7361 239° Southwest 426 490 21,700 2,288 Climbing New York Center
Sun 11:29:28 AM 40.4717 -74.8686 237° Southwest 431 496 23,800 2,500 Climbing New York Center
Sun 11:30:28 AM 40.4025 -75.0008 236° Southwest 438 504 26,700 2,231 Climbing New York Center
Sun 11:31:29 AM 40.3211 -75.1156 227° Southwest 438 504 28,300 1,884 Climbing New York Center
Sun 11:32:29 AM 40.2375 -75.2328 227° Southwest 443 510 30,500 2,132 Climbing New York Center
Sun 11:33:30 AM 40.1669 -75.3342 228° Southwest 443 510 32,600 1,636 Climbing New York Center
Sun 11:34:30 AM 40.0878 -75.4403 226° Southwest 423 487 33,800 712 Climbing New York Center
Sun 11:35:28 AM 40.0106 -75.5489 227° Southwest 418 481 34,000 101 Climbing New York Center
Sun 11:36:29 AM 39.9331 -75.6547 226° Southwest 418 481 34,000  Level New York Center
Sun 11:37:28 AM 39.8639 -75.7661 231° Southwest 412 474 34,000 -50 Level New York Center
Sun 11:38:28 AM 39.7900 -75.8825 230° Southwest 412 474 33,900  Descending New York Center
Sun 11:39:28 AM 39.7206 -75.9961 232° Southwest 412 474 34,000 50 Climbing New York Center
Sun 11:40:29 AM 39.6508 -76.1069 231° Southwest 407 468 34,000  Level New York Center
Sun 11:41:24 AM 39.5725 -76.2214 228° Southwest 410 472 34,000  Level Washington Center
Sun 11:42:25 AM 39.5031 -76.3339 231° Southwest 405 466 34,000  Level Washington Center
Sun 11:43:25 AM 39.4294 -76.4433 229° Southwest 405 466 34,000  Level Washington Center
Sun 11:44:26 AM 39.3619 -76.5417 228° Southwest 405 466 34,000  Level Washington Center
Sun 11:45:24 AM 39.2900 -76.6561 231° Southwest 410 472 34,000  Level Washington Center
Sun 11:46:26 AM 39.2203 -76.7678 231° Southwest 410 472 34,000  Level Washington Center
Sun 11:47:26 AM 39.1483 -76.8789 230° Southwest 410 472 34,000  Level Washington Center
Sun 11:48:23 AM 39.0783 -76.9872 230° Southwest 405 466 34,000  Level Washington Center
Sun 11:49:25 AM 38.9958 -77.0900 224° Southwest 405 466 34,000  Level Washington Center
Sun 11:50:24 AM 38.9111 -77.1842 221° Southwest 405 466 34,000  Level Washington Center
Sun 11:51:25 AM 38.8264 -77.2783 221° Southwest 405 466 34,000  Level Washington Center
Sun 11:52:25 AM 38.7397 -77.3722 220° Southwest 410 472 34,000  Level Washington Center
Sun 11:53:25 AM 38.6550 -77.4658 221° Southwest 410 472 34,000  Level Washington Center
Sun 11:54:26 AM 38.5614 -77.5669 220° Southwest 410 472 34,000  Level Washington Center
Sun 11:55:23 AM 38.4767 -77.6575 220° Southwest 410 472 34,000  Level Washington Center
Sun 11:56:24 AM 38.3936 -77.7508 221° Southwest 405 466 34,000  Level Washington Center
Sun 11:57:25 AM 38.3086 -77.8408 220° Southwest 405 466 34,000  Level Washington Center
Sun 11:58:25 AM 38.2256 -77.9308 220° Southwest 405 466 34,000  Level Washington Center
Sun 11:59:26 AM 38.1403 -78.0206 220° Southwest 405 466 34,000  Level Washington Center
Sun 12:00:24 PM 38.0592 -78.1103 221° Southwest 405 466 34,000  Level Washington Center
Sun 12:01:24 PM 37.9803 -78.1894 218° Southwest 386 444 34,000  Level Washington Center
Sun 12:02:26 PM 37.8931 -78.2731 217° Southwest 386 444 34,000  Level Washington Center
Sun 12:03:24 PM 37.8078 -78.3542 217° Southwest 391 450 34,000  Level Washington Center
Sun 12:04:25 PM 37.7203 -78.4350 216° Southwest 397 457 34,000  Level Washington Center
Sun 12:05:25 PM 37.6328 -78.5183 217° Southwest 397 457 34,000  Level Washington Center
Sun 12:06:24 PM 37.5539 -78.5939 217° Southwest 397 457 34,000  Level Washington Center
Sun 12:07:26 PM 37.4683 -78.6742 217° Southwest 402 463 34,000 -639 Level Washington Center
Sun 12:08:26 PM 37.3808 -78.7544 216° Southwest 402 463 32,700 -1,627 Descending Washington Center
Sun 12:09:24 PM 37.2908 -78.8367 216° Southwest 402 463 30,800 -1,361 Descending Washington Center
Sun 12:10:25 PM 37.1881 -78.9342 217° Southwest 409 471 30,000 -400 Descending Washington Center
Sun 12:11:24 PM 37.0961 -79.0186 216° Southwest 414 476 30,000  Level Washington Center
Sun 12:12:24 PM 37.0058 -79.1056 218° Southwest 414 476 30,000  Level Washington Center
Sun 12:13:25 PM 36.9136 -79.1897 216° Southwest 419 482 30,000  Level Washington Center
Sun 12:14:25 PM 36.8214 -79.2764 217° Southwest 419 482 30,000  Level Washington Center
Sun 12:16:06 PM 36.6575 -79.4197 215° Southwest 423 487 30,000  Level Atlanta Center
Sun 12:17:07 PM 36.5669 -79.5050 217° Southwest 423 487 30,000  Level Atlanta Center
Sun 12:18:07 PM 36.4739 -79.5878 216° Southwest 423 487 30,000  Level Atlanta Center
Sun 12:19:07 PM 36.3911 -79.6619 216° Southwest 418 481 30,000  Level Atlanta Center
Sun 12:20:07 PM 36.3003 -79.7467 217° Southwest 418 481 30,000  Level Atlanta Center
Sun 12:21:07 PM 36.2092 -79.8264 215° Southwest 423 487 30,000  Level Atlanta Center
Sun 12:22:07 PM 36.1181 -79.9108 217° Southwest 412 474 30,000  Level Atlanta Center
Sun 12:23:07 PM 36.0247 -79.9900 214° Southwest 412 474 30,000  Level Atlanta Center
Sun 12:24:07 PM 35.9056 -80.0419 199° South 411 473 30,000  Level Atlanta Center
Sun 12:25:07 PM 35.7989 -80.0983 203° Southwest 417 480 30,000  Level Atlanta Center
Sun 12:26:07 PM 35.6900 -80.1497 201° Southwest 422 486 30,000  Level Atlanta Center
Sun 12:27:07 PM 35.5917 -80.2056 205° Southwest 427 491 30,000  Level Atlanta Center
Sun 12:28:07 PM 35.4828 -80.2592 202° Southwest 427 491 30,000  Level Atlanta Center
Sun 12:29:07 PM 35.3717 -80.3125 201° Southwest 432 497 30,000  Level Atlanta Center
Sun 12:30:07 PM 35.2628 -80.3708 204° Southwest 423 487 30,000  Level Atlanta Center
Sun 12:32:28 PM 34.9925 -80.5006 201° Southwest 418 481 30,000  Level Jacksonville Center
Sun 12:33:28 PM 34.8850 -80.5542 202° Southwest 423 487 30,000  Level Jacksonville Center
Sun 12:34:28 PM 34.7794 -80.6050 202° Southwest 420 483 30,000  Level Jacksonville Center
Sun 12:35:28 PM 34.6722 -80.6636 204° Southwest 415 478 30,000  Level Jacksonville Center
Sun 12:36:28 PM 34.5542 -80.7219 202° Southwest 443 510 30,000  Level Jacksonville Center
Sun 12:37:28 PM 34.4464 -80.7675 199° South 431 496 30,000  Level Jacksonville Center
Sun 12:38:28 PM 34.3328 -80.8331 205° Southwest 434 499 30,000  Level Jacksonville Center
Sun 12:39:28 PM 34.2333 -80.8758 200° South 428 493 30,000  Level Jacksonville Center
Sun 12:40:28 PM 34.1194 -80.9311 202° Southwest 422 486 30,000  Level Jacksonville Center
Sun 12:41:28 PM 34.0119 -80.9836 202° Southwest 427 491 30,000  Level Jacksonville Center
Sun 12:42:28 PM 33.9269 -81.0256 202° Southwest 427 491 30,000  Level Jacksonville Center
Sun 12:43:28 PM 33.8150 -81.0828 203° Southwest 433 498 30,000  Level Jacksonville Center
Sun 12:44:28 PM 33.6844 -81.1428 201° Southwest 433 498 30,000  Level Jacksonville Center
Sun 12:45:28 PM 33.5725 -81.1975 202° Southwest 433 498 30,000  Level Jacksonville Center
Sun 12:46:28 PM 33.4647 -81.2494 202° Southwest 433 498 30,000  Level Jacksonville Center
Sun 12:47:28 PM 33.3569 -81.3036 203° Southwest 433 498 30,000  Level Jacksonville Center
Sun 12:48:28 PM 33.2489 -81.3550 202° Southwest 433 498 30,000  Level Jacksonville Center
Sun 12:49:28 PM 33.1389 -81.4117 203° Southwest 433 498 30,000  Level Jacksonville Center
Sun 12:50:28 PM 33.0372 -81.4603 202° Southwest 433 498 30,000  Level Jacksonville Center
Sun 12:51:28 PM 32.9272 -81.5117 201° Southwest 433 498 30,000  Level Jacksonville Center
Sun 12:52:28 PM 32.8172 -81.5653 202° Southwest 433 498 30,000  Level Jacksonville Center
Sun 12:53:28 PM 32.7092 -81.6186 203° Southwest 433 498 30,000  Level Jacksonville Center
Sun 12:54:28 PM 32.5928 -81.6769 203° Southwest 433 498 30,000  Level Jacksonville Center
Sun 12:55:28 PM 32.4703 -81.7353 202° Southwest 433 498 30,000  Level Jacksonville Center
Sun 12:56:28 PM 32.3683 -81.7833 202° Southwest 438 504 30,000  Level Jacksonville Center
Sun 12:57:28 PM 32.2456 -81.8436 203° Southwest 440 506 30,000 -500 Level Jacksonville Center
Sun 12:58:28 PM 32.1292 -81.8867 197° South 434 499 29,000 -1,000 Descending Jacksonville Center
Sun 12:59:28 PM 32.0186 -81.9028 187° South 441 507 28,000 -500 Descending Jacksonville Center
Sun 01:00:28 PM 31.8831 -81.9236 187° South 452 520 28,000  Level Jacksonville Center
Sun 01:01:28 PM 31.7600 -81.9419 187° South 452 520 28,000  Level Jacksonville Center
Sun 01:02:28 PM 31.6494 -81.9603 188° South 447 514 28,000  Level Jacksonville Center
Sun 01:03:28 PM 31.5119 -81.9836 188° South 447 514 28,000  Level Jacksonville Center
Sun 01:04:28 PM 31.3992 -82.0017 188° South 452 520 28,000  Level Jacksonville Center
Sun 01:05:28 PM 31.2742 -82.0247 189° South 452 520 28,000  Level Jacksonville Center
Sun 01:06:28 PM 31.1489 -82.0453 188° South 457 526 28,000  Level Jacksonville Center
Sun 01:07:28 PM 31.0217 -82.0658 188° South 462 532 28,000  Level Jacksonville Center
Sun 01:08:28 PM 30.8944 -82.0864 188° South 467 537 28,000  Level Jacksonville Center
Sun 01:09:28 PM 30.7672 -82.1067 188° South 467 537 28,000  Level Jacksonville Center
Sun 01:10:28 PM 30.6381 -82.1272 188° South 467 537 28,000  Level Jacksonville Center
Sun 01:11:28 PM 30.5108 -82.1450 187° South 467 537 28,000  Level Jacksonville Center
Sun 01:12:28 PM 30.3833 -82.1631 187° South 467 537 28,000 -250 Level Jacksonville Center
Sun 01:13:28 PM 30.2561 -82.1831 188° South 462 532 27,500 -500 Descending Jacksonville Center
Sun 01:14:28 PM 30.1311 -82.2008 187° South 468 539 27,000 -300 Descending Jacksonville Center
Sun 01:15:28 PM 29.9850 -82.2308 190° South 468 539 26,900 -450 Descending Jacksonville Center
Sun 01:16:28 PM 29.8600 -82.2508 188° South 468 539 26,100 -950 Descending Jacksonville Center
Sun 01:17:28 PM 29.7367 -82.2683 187° South 462 532 25,000 -1,100 Descending Jacksonville Center
Sun 01:18:28 PM 29.6114 -82.2619 177° South 456 525 23,900 -1,100 Descending Jacksonville Center
Sun 01:19:28 PM 29.4925 -82.2436 172° South 451 519 22,800 -1,150 Descending Jacksonville Center
Sun 01:20:28 PM 29.3753 -82.2228 171° South 439 505 21,600 -1,300 Descending Jacksonville Center
Sun 01:21:28 PM 29.2606 -82.2069 173° South 428 493 20,200 -1,500 Descending Jacksonville Center
Sun 01:22:28 PM 29.1478 -82.1936 174° South 423 487 18,600 -1,500 Descending Jacksonville Center
Sun 01:23:28 PM 29.0392 -82.1753 172° South 412 474 17,200 -1,550 Descending Jacksonville Center
Sun 01:24:28 PM 28.9367 -82.1547 170° South 399 459 15,500 -1,236 Descending Jacksonville Center
Sun 01:26:47 PM 28.7167 -82.1333 175° South 363 418 13,100 -941 Descending Tampa TRACON
Sun 01:27:52 PM 28.6000 -82.1000 166° South 354 407 12,300 -816 Descending Tampa TRACON
Sun 01:28:52 PM 28.5000 -82.1000 180° South 357 411 11,400 -684 Descending Tampa TRACON
Sun 01:29:46 PM 28.4333 -82.1167 192° South 359 413 11,000 -350 Descending Tampa TRACON
Sun 01:30:52 PM 28.3167 -82.1500 194° South 351 404 10,700 -425 Descending Tampa TRACON
Sun 01:31:53 PM 28.2167 -82.1833 196° South 347 399 10,100 -283 Descending Tampa TRACON
Sun 01:32:59 PM 28.1167 -82.2000 188° South 349 402 10,100 -50 Level Tampa TRACON
Sun 01:33:53 PM 28.0333 -82.2333 199° South 336 387 10,000 -579 Descending Tampa TRACON
Sun 01:34:53 PM 27.9500 -82.2500 190° South 281 323 9,000 -1,350 Descending Tampa TRACON
Sun 01:35:53 PM 27.8667 -82.2667 190° South 280 322 7,300 -1,368 Descending Tampa TRACON
Sun 01:36:47 PM 27.8167 -82.2833 196° South 274 315 6,400 -684 Descending Tampa TRACON
Sun 01:37:47 PM 27.7500 -82.3333 214° Southwest 272 313 6,000 -200 Descending Tampa TRACON
Sun 01:38:47 PM 27.7000 -82.4000 230° Southwest 269 310 6,000 -100 Level Tampa TRACON
Sun 01:39:47 PM 27.6500 -82.4500 222° Southwest 272 313 5,800 -1,000 Descending Tampa TRACON
Sun 01:40:53 PM 27.5833 -82.5167 222° Southwest 267 307 3,900 -1,381 Descending Tampa TRACON
Sun 01:41:53 PM 27.5333 -82.5667 222° Southwest 216 249 2,900 -1,000 Descending Tampa TRACON

Login

Don't have an account? Register now (free) for customized features, flight alerts, and more!